Details From LEZL - Sevilla
To LEGR - Granada
Flight Number -
Tags Routegen Generated
Created
Modified
Stats Distance 100 nm / 186 km
Max Altitude 300 ft / 91 m
Waypoints 5
Social Downloads 17
Likes 0
Share

Download

Looking for another format? Having issues loading an existing format? Contact us
Advertisement - Login to hide

Notes

Departing runway 8 LEZL. Arriving runway 8 LEGR.

Route

LEZL +37.42_-005.78 +37.33_-005.01 +37.19_-003.88 LEGR

ID Type Via Altitude (ft/m) Position (lat/lon) Dist (leg/tot) Name
O LEZL APT - 300 / 91 37.41800 / -5.87410 - / 0 nm
+37.42_-005.78 LATLON - 300 / 91 37.41826 / -5.78299 4 / 4 nm
+37.33_-005.01 LATLON - 300 / 91 37.32712 / -5.00917 37 / 41 nm
+37.19_-003.88 LATLON - 300 / 91 37.18792 / -3.88455 54 / 96 nm
O LEGR APT - 0 / 0 37.18861 / -3.79372 4 / 100 nm

Altitude Profile

Advertisement - Login to hide

LEZL

Details ICAO LEZL (SVQ)
Name Sevilla-San Pablo
Region Spain
Timezone Europe/Madrid (UTC+2.0)
Stats Elevation 110 ft / 34 m (AMSL)
Location 37.417900° -5.893090°
Runways 1
Magnetic Variation 0.908° W

METAR

LEZL 120730Z 10006KT 070V140 9999 BKN006 14/13 Q1020 NOSIG

Decode

TAF

TAF TAF LEZL 120200Z 1203/1303 22009KT CAVOK TX24/1216Z TN11/1206Z PROB40 TEMPO 1203/1209 4000 BR BKN009 PROB30 TEMPO 1203/1208 0500 FG BECMG 1206/1208 06010KT

Decode

Departure Runways

ID Width Length Bearing (true/mag) Surface Threshold Overrun Markings Lighting
09 148 ft / 45 m 11,008 ft / 3,355 m 89.75° / 90.66° ASPHALT 0 ft / 0 m 164 ft / 50 m PREC-APP CENTERLINE EDGE THRESHOLD ALSF-I REIL-OMNI
27 148 ft / 45 m 11,008 ft / 3,355 m 269.77° / 270.68° ASPHALT 0 ft / 0 m 171 ft / 52 m PREC-APP CENTERLINE EDGE THRESHOLD ALSF-I REIL-OMNI

LEGR

Details ICAO LEGR (GRX)
Name Federico García Lorca Granada-Jaén
Region Spain
Timezone Europe/Madrid (UTC+2.0)
Stats Elevation 1,860 ft / 567 m (AMSL)
Location 37.188700° -3.777350°
Runways 1
Magnetic Variation 0.300° W

METAR

LEGR 120730Z 00000KT 9999 FEW080 10/09 Q1021

Decode

TAF

TAF LEGR 120200Z 1203/1303 VRB03KT 9999 SCT040 TX20/1212Z TN08/1206Z

Decode

Destination Runways

ID Width Length Bearing (true/mag) Surface Threshold Overrun Markings Lighting
09 148 ft / 45 m 9,497 ft / 2,895 m 89.46° / 89.76° ASPHALT 0 ft / 0 m 194 ft / 59 m PREC-APP CENTERLINE EDGE THRESHOLD ALSF-I REIL-OMNI
27 148 ft / 45 m 9,497 ft / 2,895 m 269.48° / 269.78° ASPHALT 0 ft / 0 m 197 ft / 60 m PREC-APP CENTERLINE EDGE THRESHOLD SALS REIL-OMNI

Approach Navaids

Runway Type Ident Frequency Range Bearing (true/mag) Slope Elevation
09 OM OM - - 89.47° / 89.77 ° - 1,859 ft / 567 m (AMSL)
09 LOC-ILS GRD 109.30 MHz 18 nm / 33 km 89.48° / 89.78 ° - 1,856 ft / 566 m (AMSL)
09 MM MM - - 89.47° / 89.77 ° - 1,859 ft / 567 m (AMSL)
09 GS GRD 109.30 MHz 10 nm / 19 km 89.48° / 89.78 ° 3.00° 1,856 ft / 566 m (AMSL)

Popular Alternatives